createdAt,value
2022-07-25T00:01:49.570Z,4.60
2022-07-25T00:04:17.820Z,5.93
2022-07-25T00:06:45.657Z,6.13
2022-07-25T00:09:13.031Z,6.13
2022-07-25T00:11:39.818Z,6.00
2022-07-25T00:14:07.388Z,6.43
2022-07-25T00:16:35.015Z,6.23
2022-07-25T00:19:02.282Z,6.30
2022-07-25T00:21:29.159Z,5.90
2022-07-25T00:23:55.929Z,6.77
2022-07-25T00:26:22.684Z,6.00
2022-07-25T00:28:49.528Z,6.53
2022-07-25T00:31:16.341Z,6.50
2022-07-25T00:33:43.239Z,5.97
2022-07-25T00:36:10.103Z,6.57
2022-07-25T00:38:36.905Z,7.10
2022-07-25T00:41:04.622Z,6.30
2022-07-25T00:43:32.014Z,6.77
2022-07-25T00:45:59.511Z,6.40
2022-07-25T00:48:27.997Z,6.47
2022-07-25T00:50:58.852Z,6.30
2022-07-25T00:53:25.821Z,6.57
2022-07-25T00:55:53.040Z,6.47
2022-07-25T00:58:19.862Z,7.10
2022-07-25T01:00:47.474Z,6.37
2022-07-25T01:03:14.753Z,6.37
2022-07-25T01:05:41.873Z,6.13
2022-07-25T01:08:09.763Z,6.90
2022-07-25T01:10:36.863Z,6.83
2022-07-25T01:13:03.983Z,6.60
2022-07-25T01:15:31.123Z,6.50
2022-07-25T01:17:58.018Z,6.87
2022-07-25T01:20:28.132Z,6.47
2022-07-25T01:22:55.292Z,6.60
2022-07-25T01:25:24.140Z,6.43
2022-07-25T01:27:55.688Z,6.40
2022-07-25T01:30:24.088Z,5.97
2022-07-25T01:32:51.031Z,5.90
2022-07-25T01:35:17.777Z,6.23
2022-07-25T01:37:45.929Z,5.97
2022-07-25T01:40:14.312Z,6.40
2022-07-25T01:42:41.943Z,6.40
2022-07-25T01:45:09.871Z,6.30
2022-07-25T01:47:36.672Z,6.83
2022-07-25T01:50:03.973Z,6.20
2022-07-25T01:52:30.775Z,6.67
2022-07-25T01:54:57.677Z,6.60
2022-07-25T01:57:25.007Z,6.33
2022-07-25T01:59:58.044Z,5.63
2022-07-25T02:02:24.851Z,6.60
2022-07-25T02:04:51.674Z,6.60
2022-07-25T02:07:18.459Z,6.27
2022-07-25T02:09:45.141Z,6.80
2022-07-25T02:12:11.912Z,6.93
2022-07-25T02:14:38.739Z,6.20
2022-07-25T02:17:05.801Z,6.67
2022-07-25T02:19:32.918Z,6.60
2022-07-25T02:21:59.869Z,6.90
2022-07-25T02:24:26.601Z,6.33
2022-07-25T02:26:53.372Z,6.37
2022-07-25T02:29:21.941Z,6.30
2022-07-25T02:31:49.090Z,7.67
2022-07-25T02:34:18.645Z,6.97
2022-07-25T02:36:45.883Z,7.33
2022-07-25T02:39:12.912Z,6.73
2022-07-25T02:41:39.798Z,7.53
2022-07-25T02:44:07.337Z,6.80
2022-07-25T02:46:34.485Z,6.17
2022-07-25T02:49:01.396Z,7.33
2022-07-25T02:51:28.172Z,6.73
2022-07-25T02:53:57.899Z,6.63
2022-07-25T02:56:25.816Z,6.03
2022-07-25T02:58:52.564Z,6.40
2022-07-25T03:01:19.387Z,6.20
2022-07-25T03:03:46.303Z,6.77
2022-07-25T03:06:13.144Z,6.97
2022-07-25T03:08:39.942Z,5.80
2022-07-25T03:11:06.652Z,5.80
2022-07-25T03:13:33.501Z,6.47
2022-07-25T03:16:00.463Z,5.93
2022-07-25T03:18:27.214Z,6.33
2022-07-25T03:20:53.971Z,5.73
2022-07-25T03:23:20.722Z,6.47
2022-07-25T03:25:47.476Z,6.00
2022-07-25T03:28:14.178Z,5.60
2022-07-25T03:30:40.963Z,6.67
2022-07-25T03:33:07.808Z,6.27
2022-07-25T03:35:35.322Z,6.37
2022-07-25T03:38:02.236Z,6.30
2022-07-25T03:40:29.125Z,6.77
2022-07-25T03:42:55.851Z,6.83
2022-07-25T03:45:22.625Z,6.37
2022-07-25T03:47:49.366Z,6.53
2022-07-25T03:50:16.229Z,6.67
2022-07-25T03:52:42.988Z,6.37
2022-07-25T03:55:11.478Z,6.70
2022-07-25T03:57:39.162Z,6.73
2022-07-25T04:00:08.133Z,6.90
2022-07-25T04:02:35.365Z,6.60
2022-07-25T04:05:02.222Z,6.50
2022-07-25T04:07:28.921Z,6.63
2022-07-25T04:09:55.984Z,5.97
2022-07-25T04:12:22.706Z,6.70
2022-07-25T04:14:49.475Z,7.27
2022-07-25T04:17:16.403Z,6.60
2022-07-25T04:19:43.300Z,6.80
2022-07-25T04:22:10.736Z,7.07
2022-07-25T04:24:37.623Z,6.80
2022-07-25T04:27:04.532Z,6.53
2022-07-25T04:29:31.441Z,6.27
2022-07-25T04:31:58.325Z,6.97
2022-07-25T04:34:25.373Z,7.30
2022-07-25T04:36:52.138Z,6.20
2022-07-25T04:39:18.875Z,7.10
2022-07-25T04:41:45.651Z,6.97
2022-07-25T04:44:12.382Z,6.87
2022-07-25T04:46:40.919Z,6.40
2022-07-25T04:49:07.697Z,7.00
2022-07-25T04:51:37.429Z,6.43
2022-07-25T04:54:04.953Z,6.20
2022-07-25T04:56:31.936Z,6.77
2022-07-25T04:59:03.138Z,6.50
2022-07-25T05:01:33.111Z,6.43
2022-07-25T05:03:59.835Z,6.13
2022-07-25T05:06:26.674Z,6.33
2022-07-25T05:08:53.404Z,6.33
2022-07-25T05:11:20.149Z,6.80
2022-07-25T05:13:46.896Z,6.30
2022-07-25T05:16:13.673Z,6.70
2022-07-25T05:18:40.651Z,6.60
2022-07-25T05:21:13.288Z,7.10
2022-07-25T05:23:41.075Z,6.40
2022-07-25T05:26:08.034Z,6.70
2022-07-25T05:28:34.730Z,6.70
2022-07-25T05:31:01.677Z,6.80
2022-07-25T05:33:28.596Z,6.87
2022-07-25T05:35:55.421Z,7.30
2022-07-25T05:38:22.275Z,6.57
2022-07-25T05:40:52.090Z,5.97
2022-07-25T05:43:19.248Z,7.60
2022-07-25T05:45:47.493Z,6.83
2022-07-25T05:48:15.300Z,6.73
2022-07-25T05:50:42.012Z,7.40
2022-07-25T05:53:09.011Z,6.90
2022-07-25T05:55:35.770Z,6.40
2022-07-25T05:58:07.615Z,6.23
2022-07-25T06:00:34.388Z,6.60
2022-07-25T06:03:01.258Z,5.97
2022-07-25T06:05:28.200Z,6.53
2022-07-25T06:07:55.026Z,6.50
2022-07-25T06:10:22.269Z,6.30
2022-07-25T06:12:49.252Z,6.53
2022-07-25T06:15:22.219Z,5.43
2022-07-25T06:17:52.678Z,5.63
2022-07-25T06:20:19.585Z,5.40
2022-07-25T06:22:46.353Z,5.47
2022-07-25T06:25:13.088Z,4.70
2022-07-25T06:27:39.965Z,5.00
2022-07-25T06:30:19.171Z,4.17
2022-07-25T06:32:47.142Z,4.70
2022-07-25T06:35:13.880Z,4.70
2022-07-25T06:37:40.695Z,4.87
2022-07-25T06:40:08.303Z,5.10
2022-07-25T06:42:42.975Z,4.73
2022-07-25T06:45:11.275Z,5.03
2022-07-25T06:47:39.091Z,4.73
2022-07-25T06:50:07.674Z,4.93
2022-07-25T06:52:34.717Z,4.23
2022-07-25T06:55:02.296Z,4.07
2022-07-25T06:57:29.052Z,4.20
2022-07-25T06:59:55.874Z,3.90
2022-07-25T07:02:22.651Z,3.43
2022-07-25T07:04:49.581Z,3.10
2022-07-25T07:07:17.293Z,3.40
2022-07-25T07:09:44.327Z,2.83
2022-07-25T07:12:11.282Z,2.80
2022-07-25T07:14:38.195Z,2.53
2022-07-25T07:17:05.882Z,2.57
2022-07-25T07:19:32.768Z,1.73
2022-07-25T07:21:59.761Z,2.30
2022-07-25T07:24:26.771Z,1.83
2022-07-25T07:26:54.616Z,1.93
2022-07-25T07:29:21.785Z,1.70
2022-07-25T07:31:48.902Z,1.90
2022-07-25T07:34:16.555Z,2.00
2022-07-25T07:36:43.840Z,2.00
2022-07-25T07:39:10.666Z,1.70
2022-07-25T07:41:37.439Z,2.00
2022-07-25T07:44:05.634Z,1.93
2022-07-25T07:46:32.391Z,1.50
2022-07-25T07:48:59.306Z,2.00
2022-07-25T07:51:26.073Z,1.70
2022-07-25T07:54:11.465Z,1.37
2022-07-25T07:56:39.575Z,1.53
2022-07-25T07:59:07.044Z,1.53
2022-07-25T08:01:34.901Z,1.37
2022-07-25T08:04:02.160Z,1.50
2022-07-25T08:06:29.071Z,1.63
2022-07-25T08:08:57.385Z,1.60
2022-07-25T08:11:24.272Z,1.40
2022-07-25T08:13:51.975Z,1.90
2022-07-25T08:16:19.486Z,1.75
2022-07-25T08:18:46.986Z,1.20
2022-07-25T08:21:14.356Z,1.60
2022-07-25T08:23:42.089Z,1.40
2022-07-25T08:26:08.983Z,1.83
2022-07-25T08:28:36.075Z,1.02
2022-07-25T08:31:02.969Z,1.77
2022-07-25T08:33:29.968Z,0.95
2022-07-25T08:35:58.933Z,1.15
2022-07-25T08:38:28.799Z,1.17
2022-07-25T08:40:56.926Z,1.30
2022-07-25T08:43:24.121Z,1.30
2022-07-25T08:45:53.321Z,1.27
2022-07-25T08:48:22.995Z,1.42
2022-07-25T08:50:51.500Z,1.42
2022-07-25T08:53:36.268Z,1.00
2022-07-25T08:56:14.821Z,1.88
2022-07-25T08:58:45.728Z,1.48
2022-07-25T09:01:13.943Z,1.38
2022-07-25T09:03:43.445Z,1.25
2022-07-25T09:06:20.290Z,1.10
2022-07-25T09:08:59.613Z,1.40
2022-07-25T09:11:35.774Z,1.33
2022-07-25T09:14:14.773Z,1.60
2022-07-25T09:16:45.383Z,1.70
2022-07-25T09:19:20.516Z,1.73
2022-07-25T09:22:10.210Z,1.60
2022-07-25T09:24:44.740Z,1.40
2022-07-25T09:27:13.527Z,1.80
2022-07-25T09:29:42.615Z,1.27
2022-07-25T09:32:19.827Z,1.58
2022-07-25T09:34:49.126Z,1.40
2022-07-25T09:37:19.007Z,1.88
2022-07-25T09:39:55.392Z,1.58
2022-07-25T09:42:26.946Z,1.48
2022-07-25T09:45:12.510Z,1.42
2022-07-25T09:48:03.833Z,1.40
2022-07-25T09:50:33.203Z,1.10
2022-07-25T09:53:03.524Z,1.48
2022-07-25T09:55:32.210Z,1.33
2022-07-25T09:58:01.976Z,1.30
2022-07-25T10:00:29.551Z,1.58
2022-07-25T10:03:12.767Z,1.10
2022-07-25T10:06:00.101Z,0.98
2022-07-25T10:08:28.615Z,1.00
2022-07-25T10:10:55.584Z,1.05
2022-07-25T10:13:39.145Z,1.08
2022-07-25T10:16:23.216Z,1.23
2022-07-25T10:18:51.063Z,1.23
2022-07-25T10:21:26.134Z,1.25
2022-07-25T10:24:09.511Z,1.20
2022-07-25T10:26:41.269Z,1.20
2022-07-25T10:29:12.901Z,1.33
2022-07-25T10:31:50.346Z,1.10
2022-07-25T10:34:30.805Z,1.65
2022-07-25T10:37:08.906Z,1.38
2022-07-25T10:39:41.356Z,1.42
2022-07-25T10:42:14.171Z,1.70
2022-07-25T10:44:47.805Z,1.25
2022-07-25T10:47:15.686Z,1.42
2022-07-25T10:50:13.901Z,1.38
2022-07-25T10:52:42.665Z,1.73
2022-07-25T10:55:13.011Z,1.67
2022-07-25T10:57:55.018Z,1.67
2022-07-25T11:00:28.191Z,1.48
2022-07-25T11:02:58.239Z,1.55
2022-07-25T11:05:25.333Z,2.03
2022-07-25T11:08:11.535Z,1.70
2022-07-25T11:10:40.245Z,2.00
2022-07-25T11:13:14.704Z,1.98
2022-07-25T11:15:42.291Z,1.90
2022-07-25T11:18:09.192Z,2.00
2022-07-25T11:20:36.223Z,1.73
2022-07-25T11:23:04.788Z,1.95
2022-07-25T11:25:31.626Z,1.90
2022-07-25T11:28:03.383Z,2.03
2022-07-25T11:30:30.932Z,1.80
2022-07-25T11:33:01.469Z,1.80
2022-07-25T11:35:31.237Z,1.73
2022-07-25T11:38:02.017Z,1.88
2022-07-25T11:40:33.148Z,1.55
2022-07-25T11:43:00.413Z,1.85
2022-07-25T11:45:30.006Z,2.17
2022-07-25T11:48:09.548Z,1.90
2022-07-25T11:50:38.751Z,1.98
2022-07-25T11:53:08.973Z,1.80
2022-07-25T11:55:40.455Z,1.90
2022-07-25T11:58:07.555Z,1.90
2022-07-25T12:00:39.435Z,2.40
2022-07-25T12:03:18.689Z,2.00
2022-07-25T12:05:47.163Z,2.15
2022-07-25T12:08:19.733Z,1.90
2022-07-25T12:10:48.110Z,2.40
2022-07-25T12:13:29.585Z,2.42
2022-07-25T12:15:58.451Z,2.15
2022-07-25T12:18:26.438Z,3.33
2022-07-25T12:20:53.421Z,2.20
2022-07-25T12:23:22.018Z,2.90
2022-07-25T12:25:49.270Z,2.47
2022-07-25T12:28:16.352Z,2.30
2022-07-25T12:30:44.505Z,3.15
2022-07-25T12:33:12.983Z,3.10
2022-07-25T12:35:41.456Z,2.40
2022-07-25T12:38:09.259Z,2.35
2022-07-25T12:40:36.400Z,2.50
2022-07-25T12:43:04.376Z,2.15
2022-07-25T12:45:31.353Z,3.08
2022-07-25T12:47:58.370Z,2.75
2022-07-25T12:50:26.082Z,2.67
2022-07-25T12:52:53.720Z,2.70
2022-07-25T12:55:21.295Z,2.22
2022-07-25T12:57:48.602Z,1.88
2022-07-25T13:00:18.805Z,2.30
2022-07-25T13:02:45.955Z,1.70
2022-07-25T13:05:13.094Z,1.98
2022-07-25T13:07:40.264Z,2.47
2022-07-25T13:10:08.076Z,2.20
2022-07-25T13:12:35.794Z,2.28
2022-07-25T13:15:02.937Z,2.55
2022-07-25T13:17:29.759Z,2.53
2022-07-25T13:19:57.578Z,2.60
2022-07-25T13:22:25.923Z,2.20
2022-07-25T13:24:53.626Z,2.00
2022-07-25T13:27:21.749Z,2.22
2022-07-25T13:29:54.801Z,2.00
2022-07-25T13:32:22.914Z,1.77
2022-07-25T13:34:49.955Z,1.90
2022-07-25T13:37:16.815Z,1.80
2022-07-25T13:39:43.937Z,1.70
2022-07-25T13:42:11.249Z,1.52
2022-07-25T13:44:38.161Z,1.60
2022-07-25T13:47:05.229Z,2.30
2022-07-25T13:49:32.689Z,2.17
2022-07-25T13:52:03.466Z,2.15
2022-07-25T13:54:30.440Z,1.50
2022-07-25T13:56:57.568Z,2.10
2022-07-25T13:59:24.794Z,1.75
2022-07-25T14:01:51.696Z,1.88
2022-07-25T14:04:18.757Z,2.03
2022-07-25T14:06:45.612Z,2.00
2022-07-25T14:09:13.432Z,2.08
2022-07-25T14:11:40.500Z,2.10
2022-07-25T14:14:07.270Z,2.22
2022-07-25T14:16:34.604Z,1.80
2022-07-25T14:19:02.386Z,1.90
2022-07-25T14:21:30.689Z,1.92
2022-07-25T14:23:57.569Z,2.05
2022-07-25T14:26:25.886Z,1.70
2022-07-25T14:28:52.977Z,1.67
2022-07-25T14:31:21.389Z,1.88
2022-07-25T14:33:48.299Z,1.58
2022-07-25T14:36:15.667Z,1.40
2022-07-25T14:38:42.529Z,1.35
2022-07-25T14:41:13.040Z,1.60
2022-07-25T14:43:41.246Z,1.50
2022-07-25T14:46:09.243Z,1.83
2022-07-25T14:48:37.612Z,1.55
2022-07-25T14:51:05.826Z,1.42
2022-07-25T14:53:33.151Z,1.55
2022-07-25T14:56:01.075Z,1.40
2022-07-25T14:58:27.999Z,1.20
2022-07-25T15:00:55.105Z,1.33
2022-07-25T15:03:22.301Z,1.67
2022-07-25T15:05:49.591Z,1.55
2022-07-25T15:08:17.263Z,0.98
2022-07-25T15:10:44.215Z,1.17
2022-07-25T15:13:30.618Z,1.95
2022-07-25T15:15:58.742Z,1.33
2022-07-25T15:18:25.940Z,1.13
2022-07-25T15:20:52.983Z,1.10
2022-07-25T15:23:21.345Z,1.20
2022-07-25T15:26:04.448Z,1.00
2022-07-25T15:28:34.053Z,1.05
2022-07-25T15:31:02.054Z,1.02
2022-07-25T15:33:30.115Z,0.90
2022-07-25T15:35:57.266Z,1.15
2022-07-25T15:38:24.652Z,0.93
2022-07-25T15:40:51.742Z,1.00
2022-07-25T15:43:18.851Z,0.98
2022-07-25T15:45:49.109Z,0.90
2022-07-25T15:48:17.113Z,1.15
2022-07-25T15:50:49.847Z,0.95
2022-07-25T15:53:17.096Z,1.35
2022-07-25T15:55:44.259Z,1.10
2022-07-25T15:58:13.262Z,0.85
2022-07-25T16:00:41.005Z,1.20
2022-07-25T16:03:08.363Z,1.05
2022-07-25T16:05:35.923Z,1.17
2022-07-25T16:08:03.327Z,1.35
2022-07-25T16:10:32.084Z,1.20
2022-07-25T16:13:00.006Z,1.10
2022-07-25T16:15:26.912Z,1.10
2022-07-25T16:18:00.241Z,0.70
2022-07-25T16:20:33.244Z,1.63
2022-07-25T16:23:01.091Z,1.20
2022-07-25T16:25:38.610Z,1.15
2022-07-25T16:28:06.411Z,1.10
2022-07-25T16:30:33.387Z,1.30
2022-07-25T16:33:00.141Z,1.20
2022-07-25T16:35:27.100Z,1.40
2022-07-25T16:37:55.130Z,1.60
2022-07-25T16:40:25.834Z,1.20
2022-07-25T16:42:58.834Z,1.17
2022-07-25T16:45:26.903Z,1.00
2022-07-25T16:47:53.989Z,1.30
2022-07-25T16:50:21.504Z,1.13
2022-07-25T16:52:48.871Z,1.13
2022-07-25T16:55:15.669Z,0.90
2022-07-25T16:57:42.478Z,0.80
2022-07-25T17:00:10.427Z,0.80
2022-07-25T17:02:38.900Z,0.45
2022-07-25T17:05:06.324Z,0.68
2022-07-25T17:07:33.320Z,0.88
2022-07-25T17:10:00.311Z,0.88
2022-07-25T17:12:27.355Z,1.15
2022-07-25T17:14:54.498Z,1.30
2022-07-25T17:17:21.447Z,1.42
2022-07-25T17:19:48.324Z,1.20
2022-07-25T17:22:15.603Z,1.17
2022-07-25T17:24:42.804Z,1.23
2022-07-25T17:27:10.188Z,1.20
2022-07-25T17:29:37.826Z,1.17
2022-07-25T17:32:07.113Z,0.95
2022-07-25T17:34:34.738Z,1.10
2022-07-25T17:37:03.111Z,1.10
2022-07-25T17:39:31.029Z,1.20
2022-07-25T17:41:58.486Z,0.83
2022-07-25T17:44:25.658Z,0.90
2022-07-25T17:46:53.662Z,0.80
2022-07-25T17:49:21.683Z,1.20
2022-07-25T17:51:48.711Z,1.20
2022-07-25T17:54:16.051Z,1.47
2022-07-25T17:56:43.096Z,1.20
2022-07-25T17:59:10.033Z,1.10
2022-07-25T18:01:37.386Z,0.87
2022-07-25T18:04:05.489Z,1.10
2022-07-25T18:06:33.309Z,1.20
2022-07-25T18:09:00.103Z,1.10
2022-07-25T18:11:27.859Z,1.33
2022-07-25T18:13:54.910Z,1.20
2022-07-25T18:16:23.345Z,1.00
2022-07-25T18:18:52.753Z,1.60
2022-07-25T18:21:19.685Z,0.87
2022-07-25T18:23:46.555Z,1.37
2022-07-25T18:26:13.788Z,1.10
2022-07-25T18:28:44.300Z,1.30
2022-07-25T18:31:12.195Z,1.87
2022-07-25T18:33:39.445Z,1.60
2022-07-25T18:36:07.789Z,1.50
2022-07-25T18:38:35.513Z,1.20
2022-07-25T18:41:27.598Z,1.50
2022-07-25T18:43:51.519Z,1.20
2022-07-25T18:46:18.892Z,1.33
2022-07-25T18:48:46.741Z,1.20
2022-07-25T18:51:14.017Z,1.40
2022-07-25T18:53:44.745Z,1.30
2022-07-25T18:56:14.975Z,1.50
2022-07-25T18:58:47.027Z,1.43
2022-07-25T19:01:14.158Z,1.40
2022-07-25T19:03:41.043Z,2.03
2022-07-25T19:06:09.162Z,2.00
2022-07-25T19:08:36.657Z,2.10
2022-07-25T19:11:03.896Z,2.30
2022-07-25T19:13:49.015Z,2.37
2022-07-25T19:16:18.041Z,2.13
2022-07-25T19:18:45.609Z,1.33
2022-07-25T19:21:13.176Z,2.87
2022-07-25T19:23:40.850Z,1.60
2022-07-25T19:26:08.180Z,3.33
2022-07-25T19:28:38.240Z,1.70
2022-07-25T19:31:05.493Z,1.50
2022-07-25T19:33:36.114Z,1.93
2022-07-25T19:36:04.567Z,2.20
2022-07-25T19:38:32.065Z,1.97
2022-07-25T19:40:59.394Z,1.63
2022-07-25T19:43:26.310Z,1.70
2022-07-25T19:45:53.259Z,1.50
2022-07-25T19:48:24.051Z,1.33
2022-07-25T19:50:53.051Z,1.30
2022-07-25T19:53:23.172Z,2.33
2022-07-25T19:55:53.577Z,2.83
2022-07-25T19:58:21.137Z,2.10
2022-07-25T20:00:48.184Z,1.70
2022-07-25T20:03:15.675Z,2.30
2022-07-25T20:05:42.962Z,2.00
2022-07-25T20:08:10.278Z,1.80
2022-07-25T20:10:37.297Z,1.80
2022-07-25T20:13:05.197Z,1.60
2022-07-25T20:15:32.131Z,2.10
2022-07-25T20:18:01.816Z,2.40
2022-07-25T20:20:29.260Z,1.97
2022-07-25T20:22:56.677Z,2.20
2022-07-25T20:25:23.498Z,2.53
2022-07-25T20:27:51.672Z,1.80
2022-07-25T20:30:19.159Z,2.10
2022-07-25T20:32:46.632Z,2.27
2022-07-25T20:35:13.635Z,1.80
2022-07-25T20:37:40.451Z,1.80
2022-07-25T20:40:08.877Z,1.80
2022-07-25T20:42:37.422Z,1.40
2022-07-25T20:45:06.288Z,1.20
2022-07-25T20:47:34.758Z,2.23
2022-07-25T20:50:01.669Z,1.30
2022-07-25T20:52:30.528Z,1.10
2022-07-25T20:54:57.410Z,1.10
2022-07-25T20:57:24.815Z,1.00
2022-07-25T20:59:51.581Z,1.00
2022-07-25T21:02:18.711Z,1.13
2022-07-25T21:04:48.368Z,0.93
2022-07-25T21:07:18.801Z,0.90
2022-07-25T21:09:45.911Z,0.90
2022-07-25T21:12:13.413Z,1.10
2022-07-25T21:14:40.290Z,1.13
2022-07-25T21:17:08.265Z,0.70
2022-07-25T21:19:35.647Z,0.83
2022-07-25T21:22:03.191Z,0.80
2022-07-25T21:24:30.291Z,1.03
2022-07-25T21:26:58.885Z,1.00
2022-07-25T21:29:25.990Z,0.93
2022-07-25T21:31:52.876Z,1.10
2022-07-25T21:34:21.340Z,0.93
2022-07-25T21:36:48.237Z,1.10
2022-07-25T21:39:15.801Z,0.90
2022-07-25T21:41:44.123Z,1.00
2022-07-25T21:44:11.003Z,1.10
2022-07-25T21:46:38.268Z,1.07
2022-07-25T21:49:41.592Z,1.10
2022-07-25T21:52:13.357Z,1.03
2022-07-25T21:54:41.536Z,0.83
2022-07-25T21:57:13.525Z,1.07
2022-07-25T21:59:44.955Z,1.50
2022-07-25T22:02:12.878Z,1.00
2022-07-25T22:04:42.562Z,1.17
2022-07-25T22:07:09.347Z,1.20
2022-07-25T22:09:38.748Z,1.07
2022-07-25T22:12:05.816Z,1.33
2022-07-25T22:14:32.649Z,1.30
2022-07-25T22:16:59.468Z,1.30
2022-07-25T22:19:27.101Z,1.13
2022-07-25T22:21:54.395Z,1.30
2022-07-25T22:24:21.676Z,1.50
2022-07-25T22:26:48.470Z,1.73
2022-07-25T22:29:15.250Z,1.03
2022-07-25T22:31:42.367Z,1.40
2022-07-25T22:34:09.197Z,1.50
2022-07-25T22:36:36.043Z,1.57
2022-07-25T22:39:03.771Z,2.60
2022-07-25T22:41:30.853Z,1.40
2022-07-25T22:43:59.870Z,1.30
2022-07-25T22:46:31.081Z,1.30
2022-07-25T22:48:59.228Z,1.60
2022-07-25T22:51:27.038Z,1.90
2022-07-25T22:53:53.902Z,1.47
2022-07-25T22:56:21.968Z,1.40
2022-07-25T22:58:49.457Z,1.30
2022-07-25T23:01:17.699Z,1.37
2022-07-25T23:03:45.256Z,1.50
2022-07-25T23:06:12.232Z,1.73
2022-07-25T23:08:39.082Z,1.30
2022-07-25T23:11:06.310Z,1.47
2022-07-25T23:13:34.393Z,1.67
2022-07-25T23:16:03.289Z,1.50
2022-07-25T23:18:30.770Z,1.30
2022-07-25T23:20:57.840Z,1.73
2022-07-25T23:23:25.274Z,1.20
2022-07-25T23:25:52.491Z,1.33
2022-07-25T23:28:22.462Z,1.50
2022-07-25T23:30:49.375Z,1.30
2022-07-25T23:33:16.553Z,1.50
2022-07-25T23:35:47.338Z,1.57
2022-07-25T23:38:14.462Z,1.40
2022-07-25T23:40:41.303Z,1.10
2022-07-25T23:43:08.185Z,1.67
2022-07-25T23:45:35.244Z,1.33
2022-07-25T23:48:02.196Z,1.67
2022-07-25T23:50:29.072Z,1.50
2022-07-25T23:52:55.889Z,1.40
2022-07-25T23:55:22.904Z,1.57
2022-07-25T23:57:49.730Z,1.33
